sensor_id;sensor_type;location;lat;lon;timestamp;pressure;altitude;pressure_sealevel;temperature;humidity
31062;BME280;17724;53.546;9.974;2023-03-23T00:03:27;100264.09;;;11.46;100.00
31062;BME280;17724;53.546;9.974;2023-03-23T00:07:29;100266.31;;;11.23;100.00
31062;BME280;17724;53.546;9.974;2023-03-23T00:11:31;100270.72;;;11.34;100.00
31062;BME280;17724;53.546;9.974;2023-03-23T00:15:32;100266.84;;;11.20;100.00
31062;BME280;17724;53.546;9.974;2023-03-23T00:19:33;100274.28;;;11.15;100.00
31062;BME280;17724;53.546;9.974;2023-03-23T00:23:34;100266.56;;;11.32;100.00
31062;BME280;17724;53.546;9.974;2023-03-23T00:27:35;100242.94;;;11.10;100.00
31062;BME280;17724;53.546;9.974;2023-03-23T00:31:35;100242.38;;;11.03;100.00
31062;BME280;17724;53.546;9.974;2023-03-23T00:35:36;100253.38;;;10.98;100.00
31062;BME280;17724;53.546;9.974;2023-03-23T00:39:38;100234.13;;;10.98;100.00
31062;BME280;17724;53.546;9.974;2023-03-23T00:43:38;100231.38;;;11.03;100.00
31062;BME280;17724;53.546;9.974;2023-03-23T00:47:39;100217.59;;;10.88;100.00
31062;BME280;17724;53.546;9.974;2023-03-23T00:51:41;100199.72;;;10.96;100.00
31062;BME280;17724;53.546;9.974;2023-03-23T00:55:43;100193.94;;;11.02;100.00
31062;BME280;17724;53.546;9.974;2023-03-23T00:59:44;100196.97;;;10.96;100.00
31062;BME280;17724;53.546;9.974;2023-03-23T01:03:45;100181.84;;;10.98;100.00
31062;BME280;17724;53.546;9.974;2023-03-23T01:07:46;100190.91;;;10.99;100.00
31062;BME280;17724;53.546;9.974;2023-03-23T01:11:48;100182.38;;;11.00;100.00
31062;BME280;17724;53.546;9.974;2023-03-23T01:15:49;100162.56;;;11.08;100.00
31062;BME280;17724;53.546;9.974;2023-03-23T01:19:50;100153.50;;;10.98;100.00
31062;BME280;17724;53.546;9.974;2023-03-23T01:23:51;100165.63;;;11.02;100.00
31062;BME280;17724;53.546;9.974;2023-03-23T01:27:51;100157.09;;;10.98;100.00
31062;BME280;17724;53.546;9.974;2023-03-23T01:31:52;100155.13;;;11.04;100.00
31062;BME280;17724;53.546;9.974;2023-03-23T01:35:53;100163.41;;;10.99;100.00
31062;BME280;17724;53.546;9.974;2023-03-23T01:39:54;100159.03;;;10.98;100.00
31062;BME280;17724;53.546;9.974;2023-03-23T01:48:30;100149.09;;;10.92;100.00
31062;BME280;17724;53.546;9.974;2023-03-23T01:52:32;100145.25;;;10.98;100.00
31062;BME280;17724;53.546;9.974;2023-03-23T01:56:47;100134.00;;;10.89;100.00
31062;BME280;17724;53.546;9.974;2023-03-23T02:00:49;100132.31;;;10.98;100.00
31062;BME280;17724;53.546;9.974;2023-03-23T02:04:50;100124.88;;;10.89;100.00
31062;BME280;17724;53.546;9.974;2023-03-23T02:08:52;100126.56;;;10.95;100.00
31062;BME280;17724;53.546;9.974;2023-03-23T02:12:53;100118.03;;;10.86;100.00
31062;BME280;17724;53.546;9.974;2023-03-23T02:21:13;100119.13;;;10.90;100.00
31062;BME280;17724;53.546;9.974;2023-03-23T02:38:34;100105.63;;;10.99;100.00
31062;BME280;17724;53.546;9.974;2023-03-23T02:42:36;100087.75;;;10.91;100.00
31062;BME280;17724;53.546;9.974;2023-03-23T02:46:39;100080.59;;;10.85;100.00
31062;BME280;17724;53.546;9.974;2023-03-23T02:50:44;100081.47;;;10.85;100.00
31062;BME280;17724;53.546;9.974;2023-03-23T02:54:47;100076.75;;;11.01;100.00
31062;BME280;17724;53.546;9.974;2023-03-23T02:58:48;100072.06;;;10.97;100.00
31062;BME280;17724;53.546;9.974;2023-03-23T03:02:51;100070.38;;;11.11;100.00
31062;BME280;17724;53.546;9.974;2023-03-23T03:07:23;100079.19;;;11.18;100.00
31062;BME280;17724;53.546;9.974;2023-03-23T03:11:27;100061.31;;;11.10;100.00
31062;BME280;17724;53.546;9.974;2023-03-23T03:15:33;100065.97;;;11.15;100.00
31062;BME280;17724;53.546;9.974;2023-03-23T03:19:45;100040.66;;;11.13;100.00
31062;BME280;17724;53.546;9.974;2023-03-23T03:23:48;100030.22;;;11.10;100.00
31062;BME280;17724;53.546;9.974;2023-03-23T03:27:50;100022.47;;;11.22;100.00
31062;BME280;17724;53.546;9.974;2023-03-23T03:32:03;100014.22;;;11.22;100.00
31062;BME280;17724;53.546;9.974;2023-03-23T03:36:06;100023.81;;;11.30;100.00
31062;BME280;17724;53.546;9.974;2023-03-23T03:40:14;100009.22;;;11.29;100.00
31062;BME280;17724;53.546;9.974;2023-03-23T03:44:16;100017.16;;;11.36;100.00
31062;BME280;17724;53.546;9.974;2023-03-23T03:48:16;100015.22;;;11.37;100.00
31062;BME280;17724;53.546;9.974;2023-03-23T03:52:17;100022.66;;;11.36;100.00
31062;BME280;17724;53.546;9.974;2023-03-23T03:56:18;100019.06;;;11.46;100.00
31062;BME280;17724;53.546;9.974;2023-03-23T04:00:26;100014.06;;;11.48;100.00
31062;BME280;17724;53.546;9.974;2023-03-23T04:04:28;100021.22;;;11.54;100.00
31062;BME280;17724;53.546;9.974;2023-03-23T04:08:29;100018.69;;;11.63;100.00
31062;BME280;17724;53.546;9.974;2023-03-23T04:12:29;100012.38;;;11.57;100.00
31062;BME280;17724;53.546;9.974;2023-03-23T04:16:30;100017.03;;;11.62;100.00
31062;BME280;17724;53.546;9.974;2023-03-23T04:20:32;100033.56;;;11.62;100.00
31062;BME280;17724;53.546;9.974;2023-03-23T04:24:35;100028.91;;;11.57;100.00
31062;BME280;17724;53.546;9.974;2023-03-23T04:28:37;100020.41;;;11.53;100.00
31062;BME280;17724;53.546;9.974;2023-03-23T04:32:58;100022.25;;;11.63;100.00
31062;BME280;17724;53.546;9.974;2023-03-23T04:37:01;100021.47;;;11.52;100.00
31062;BME280;17724;53.546;9.974;2023-03-23T04:41:04;100020.94;;;11.50;100.00
31062;BME280;17724;53.546;9.974;2023-03-23T04:45:21;100013.03;;;11.39;100.00
31062;BME280;17724;53.546;9.974;2023-03-23T04:49:24;100017.59;;;11.58;100.00
31062;BME280;17724;53.546;9.974;2023-03-23T04:53:33;100018.13;;;11.60;100.00
31062;BME280;17724;53.546;9.974;2023-03-23T04:57:35;100015.16;;;11.57;100.00
31062;BME280;17724;53.546;9.974;2023-03-23T05:02:05;99994.47;;;11.59;100.00
31062;BME280;17724;53.546;9.974;2023-03-23T05:06:07;100005.94;;;11.77;100.00
31062;BME280;17724;53.546;9.974;2023-03-23T05:10:10;99993.50;;;11.79;100.00
31062;BME280;17724;53.546;9.974;2023-03-23T05:14:11;100002.31;;;11.76;100.00
31062;BME280;17724;53.546;9.974;2023-03-23T05:18:14;99996.81;;;11.76;100.00
31062;BME280;17724;53.546;9.974;2023-03-23T05:22:16;99996.00;;;11.76;100.00
31062;BME280;17724;53.546;9.974;2023-03-23T05:26:22;99995.25;;;11.65;100.00
31062;BME280;17724;53.546;9.974;2023-03-23T05:30:31;100013.59;;;11.80;100.00
31062;BME280;17724;53.546;9.974;2023-03-23T05:34:34;100008.69;;;11.72;100.00
31062;BME280;17724;53.546;9.974;2023-03-23T05:38:36;100017.25;;;11.70;100.00
31062;BME280;17724;53.546;9.974;2023-03-23T05:42:40;100007.09;;;11.66;100.00
31062;BME280;17724;53.546;9.974;2023-03-23T05:47:01;99999.31;;;11.73;100.00
31062;BME280;17724;53.546;9.974;2023-03-23T05:51:02;99993.31;;;11.66;100.00
31062;BME280;17724;53.546;9.974;2023-03-23T05:55:05;99986.72;;;11.67;100.00
31062;BME280;17724;53.546;9.974;2023-03-23T05:59:09;99997.16;;;11.70;100.00
31062;BME280;17724;53.546;9.974;2023-03-23T06:03:15;99996.09;;;11.60;100.00
31062;BME280;17724;53.546;9.974;2023-03-23T06:07:37;99987.22;;;11.69;100.00
31062;BME280;17724;53.546;9.974;2023-03-23T06:11:40;99994.19;;;11.61;100.00
31062;BME280;17724;53.546;9.974;2023-03-23T06:16:04;99987.75;;;11.76;100.00
31062;BME280;17724;53.546;9.974;2023-03-23T06:20:25;99994.66;;;11.68;100.00
31062;BME280;17724;53.546;9.974;2023-03-23T06:24:27;99982.84;;;11.68;100.00
31062;BME280;17724;53.546;9.974;2023-03-23T06:28:28;100007.38;;;11.64;100.00
31062;BME280;17724;53.546;9.974;2023-03-23T06:32:30;99992.53;;;11.60;100.00
31062;BME280;17724;53.546;9.974;2023-03-23T06:36:33;100004.56;;;11.74;100.00
31062;BME280;17724;53.546;9.974;2023-03-23T06:40:43;99994.47;;;11.59;100.00
31062;BME280;17724;53.546;9.974;2023-03-23T06:44:47;99996.00;;;11.76;100.00
31062;BME280;17724;53.546;9.974;2023-03-23T06:48:49;100012.53;;;11.76;100.00
31062;BME280;17724;53.546;9.974;2023-03-23T06:52:54;99998.13;;;11.94;100.00
31062;BME280;17724;53.546;9.974;2023-03-23T06:56:55;99988.44;;;11.97;100.00
31062;BME280;17724;53.546;9.974;2023-03-23T07:00:57;99996.13;;;12.05;100.00
31062;BME280;17724;53.546;9.974;2023-03-23T07:05:04;99991.41;;;12.05;100.00
31062;BME280;17724;53.546;9.974;2023-03-23T07:09:05;100001.78;;;12.19;100.00
31062;BME280;17724;53.546;9.974;2023-03-23T07:13:06;99996.47;;;12.27;100.00
31062;BME280;17724;53.546;9.974;2023-03-23T07:17:17;99999.38;;;12.41;100.00
31062;BME280;17724;53.546;9.974;2023-03-23T07:21:34;99999.13;;;12.38;100.00
31062;BME280;17724;53.546;9.974;2023-03-23T07:25:35;99998.06;;;12.33;100.00
31062;BME280;17724;53.546;9.974;2023-03-23T07:29:36;99986.44;;;12.37;100.00
31062;BME280;17724;53.546;9.974;2023-03-23T07:33:44;100006.56;;;12.66;100.00
31062;BME280;17724;53.546;9.974;2023-03-23T07:37:45;99997.09;;;12.77;100.00
31062;BME280;17724;53.546;9.974;2023-03-23T07:41:49;99998.97;;;12.82;100.00
31062;BME280;17724;53.546;9.974;2023-03-23T07:45:56;100014.22;;;12.98;100.00
31062;BME280;17724;53.546;9.974;2023-03-23T07:50:00;100009.75;;;12.78;100.00
31062;BME280;17724;53.546;9.974;2023-03-23T07:54:14;100019.28;;;12.91;100.00
31062;BME280;17724;53.546;9.974;2023-03-23T07:58:36;100003.25;;;12.69;100.00
31062;BME280;17724;53.546;9.974;2023-03-23T08:02:37;100015.75;;;12.86;100.00
31062;BME280;17724;53.546;9.974;2023-03-23T08:07:04;100036.03;;;12.71;100.00
31062;BME280;17724;53.546;9.974;2023-03-23T08:11:28;100036.22;;;12.79;100.00
31062;BME280;17724;53.546;9.974;2023-03-23T08:15:51;100024.75;;;12.67;100.00
31062;BME280;17724;53.546;9.974;2023-03-23T08:20:27;100044.22;;;12.81;100.00
31062;BME280;17724;53.546;9.974;2023-03-23T08:24:47;100049.03;;;12.70;100.00
31062;BME280;17724;53.546;9.974;2023-03-23T08:29:08;100073.84;;;12.41;100.00
31062;BME280;17724;53.546;9.974;2023-03-23T08:33:30;100091.50;;;12.01;100.00
31062;BME280;17724;53.546;9.974;2023-03-23T08:37:52;100051.50;;;11.49;100.00
31062;BME280;17724;53.546;9.974;2023-03-23T08:42:25;100051.03;;;11.31;100.00
31062;BME280;17724;53.546;9.974;2023-03-23T08:46:45;100069.09;;;11.58;100.00
31062;BME280;17724;53.546;9.974;2023-03-23T08:51:06;100071.66;;;11.99;100.00
31062;BME280;17724;53.546;9.974;2023-03-23T08:55:25;100100.66;;;12.30;100.00
31062;BME280;17724;53.546;9.974;2023-03-23T08:59:52;100091.78;;;12.39;100.00
31062;BME280;17724;53.546;9.974;2023-03-23T09:04:43;100097.03;;;12.35;100.00
31062;BME280;17724;53.546;9.974;2023-03-23T09:09:03;100085.22;;;12.93;100.00
31062;BME280;17724;53.546;9.974;2023-03-23T09:13:09;100092.03;;;13.00;100.00
31062;BME280;17724;53.546;9.974;2023-03-23T09:17:09;100099.47;;;13.00;100.00
31062;BME280;17724;53.546;9.974;2023-03-23T09:21:10;100109.66;;;13.04;100.00
31062;BME280;17724;53.546;9.974;2023-03-23T09:25:16;100117.16;;;12.70;98.46
31062;BME280;17724;53.546;9.974;2023-03-23T09:29:19;100118.19;;;12.79;98.86
31062;BME280;17724;53.546;9.974;2023-03-23T09:33:21;100109.78;;;12.60;98.91
31062;BME280;17724;53.546;9.974;2023-03-23T09:37:21;100113.28;;;12.71;98.48
31062;BME280;17724;53.546;9.974;2023-03-23T09:50:19;100132.31;;;12.72;95.76
31062;BME280;17724;53.546;9.974;2023-03-23T09:54:51;100139.25;;;12.99;96.16
31062;BME280;17724;53.546;9.974;2023-03-23T09:59:05;100144.31;;;13.16;95.01
31062;BME280;17724;53.546;9.974;2023-03-23T10:03:21;100147.63;;;13.18;91.96
31062;BME280;17724;53.546;9.974;2023-03-23T10:07:26;100135.72;;;13.22;91.91
31062;BME280;17724;53.546;9.974;2023-03-23T10:15:36;100146.03;;;13.41;92.88
31062;BME280;17724;53.546;9.974;2023-03-23T10:24:15;100159.38;;;13.82;87.47
31062;BME280;17724;53.546;9.974;2023-03-23T10:28:23;100168.28;;;13.97;87.78
31062;BME280;17724;53.546;9.974;2023-03-23T10:32:58;100156.53;;;13.87;88.10
31062;BME280;17724;53.546;9.974;2023-03-23T10:37:21;100159.56;;;13.66;88.19
31062;BME280;17724;53.546;9.974;2023-03-23T10:41:24;100157.91;;;13.65;88.49
31062;BME280;17724;53.546;9.974;2023-03-23T10:45:27;100177.25;;;13.89;88.85
31062;BME280;17724;53.546;9.974;2023-03-23T10:49:37;100181.81;;;13.51;87.89
31062;BME280;17724;53.546;9.974;2023-03-23T10:53:49;100183.78;;;13.74;88.60
31062;BME280;17724;53.546;9.974;2023-03-23T10:58:02;100187.91;;;13.96;86.58
31062;BME280;17724;53.546;9.974;2023-03-23T11:02:13;100180.00;;;13.89;85.27
31062;BME280;17724;53.546;9.974;2023-03-23T11:06:21;100191.28;;;13.93;85.35
31062;BME280;17724;53.546;9.974;2023-03-23T11:10:26;100195.13;;;13.97;88.60
31062;BME280;17724;53.546;9.974;2023-03-23T11:14:32;100190.34;;;14.02;90.16
31062;BME280;17724;53.546;9.974;2023-03-23T11:22:35;100197.63;;;14.17;91.44
31062;BME280;17724;53.546;9.974;2023-03-23T11:26:36;100204.75;;;13.99;87.75
31062;BME280;17724;53.546;9.974;2023-03-23T11:30:38;100196.06;;;13.87;88.46
31062;BME280;17724;53.546;9.974;2023-03-23T11:34:48;100181.81;;;13.99;89.09
31062;BME280;17724;53.546;9.974;2023-03-23T11:38:53;100201.94;;;14.23;89.83
31062;BME280;17724;53.546;9.974;2023-03-23T11:43:06;100218.09;;;14.16;89.66
31062;BME280;17724;53.546;9.974;2023-03-23T11:59:45;100235.19;;;14.18;87.10
31062;BME280;17724;53.546;9.974;2023-03-23T12:04:08;100222.56;;;13.88;88.45
31062;BME280;17724;53.546;9.974;2023-03-23T12:12:40;100233.03;;;13.91;90.27
31062;BME280;17724;53.546;9.974;2023-03-23T12:17:40;100234.38;;;14.18;90.39
31062;BME280;17724;53.546;9.974;2023-03-23T12:21:40;100231.56;;;13.99;91.01
31062;BME280;17724;53.546;9.974;2023-03-23T12:26:01;100230.59;;;13.90;90.77
31062;BME280;17724;53.546;9.974;2023-03-23T12:30:32;100221.56;;;13.79;91.22
31062;BME280;17724;53.546;9.974;2023-03-23T12:34:50;100222.94;;;13.82;93.10
31062;BME280;17724;53.546;9.974;2023-03-23T12:43:40;100206.28;;;13.87;98.74
31062;BME280;17724;53.546;9.974;2023-03-23T12:47:50;100217.56;;;13.90;98.81
31062;BME280;17724;53.546;9.974;2023-03-23T12:52:04;100206.56;;;14.09;96.97
31062;BME280;17724;53.546;9.974;2023-03-23T12:56:37;100211.94;;;14.00;94.95
31062;BME280;17724;53.546;9.974;2023-03-23T13:01:02;100196.88;;;14.30;96.15
31062;BME280;17724;53.546;9.974;2023-03-23T13:09:22;100204.13;;;14.45;93.14
31062;BME280;17724;53.546;9.974;2023-03-23T13:13:43;100202.59;;;14.58;91.61
31062;BME280;17724;53.546;9.974;2023-03-23T13:17:47;100205.03;;;14.97;93.54
31062;BME280;17724;53.546;9.974;2023-03-23T13:26:02;100196.00;;;14.73;88.33
31062;BME280;17724;53.546;9.974;2023-03-23T13:30:04;100186.44;;;14.84;88.49
31062;BME280;17724;53.546;9.974;2023-03-23T13:38:39;100194.34;;;14.72;84.85
31062;BME280;17724;53.546;9.974;2023-03-23T13:42:52;100187.16;;;14.71;84.68
31062;BME280;17724;53.546;9.974;2023-03-23T13:47:06;100196.16;;;14.82;83.83
31062;BME280;17724;53.546;9.974;2023-03-23T13:55:50;100175.00;;;14.53;82.91
31062;BME280;17724;53.546;9.974;2023-03-23T13:59:57;100181.00;;;14.36;81.77
31062;BME280;17724;53.546;9.974;2023-03-23T14:03:59;100188.19;;;14.18;83.34
31062;BME280;17724;53.546;9.974;2023-03-23T14:12:22;100287.66;;;13.75;88.37
31062;BME280;17724;53.546;9.974;2023-03-23T14:16:34;100268.22;;;12.44;93.74
31062;BME280;17724;53.546;9.974;2023-03-23T14:20:37;100235.78;;;12.20;100.00
31062;BME280;17724;53.546;9.974;2023-03-23T14:24:40;100204.94;;;12.18;100.00
31062;BME280;17724;53.546;9.974;2023-03-23T14:28:49;100211.56;;;12.12;100.00
31062;BME280;17724;53.546;9.974;2023-03-23T14:32:51;100218.47;;;12.15;100.00
31062;BME280;17724;53.546;9.974;2023-03-23T14:36:53;100212.13;;;12.14;100.00
31062;BME280;17724;53.546;9.974;2023-03-23T14:40:59;100190.53;;;12.31;100.00
31062;BME280;17724;53.546;9.974;2023-03-23T14:45:01;100208.75;;;12.27;96.49
31062;BME280;17724;53.546;9.974;2023-03-23T14:49:05;100239.69;;;12.14;93.49
31062;BME280;17724;53.546;9.974;2023-03-23T14:53:19;100240.13;;;12.37;92.03
31062;BME280;17724;53.546;9.974;2023-03-23T14:57:27;100234.84;;;12.45;92.63
31062;BME280;17724;53.546;9.974;2023-03-23T15:01:30;100243.81;;;12.66;92.71
31062;BME280;17724;53.546;9.974;2023-03-23T15:05:37;100241.06;;;12.66;90.76
31062;BME280;17724;53.546;9.974;2023-03-23T15:09:42;100239.59;;;12.79;92.34
31062;BME280;17724;53.546;9.974;2023-03-23T15:13:50;100250.84;;;12.88;89.72
31062;BME280;17724;53.546;9.974;2023-03-23T15:17:51;100249.03;;;13.07;91.60
31062;BME280;17724;53.546;9.974;2023-03-23T15:21:57;100264.22;;;13.10;91.49
31062;BME280;17724;53.546;9.974;2023-03-23T15:26:05;100266.63;;;13.16;90.71
31062;BME280;17724;53.546;9.974;2023-03-23T15:34:33;100259.97;;;13.22;90.63
31062;BME280;17724;53.546;9.974;2023-03-23T15:38:35;100249.06;;;13.41;91.01
31062;BME280;17724;53.546;9.974;2023-03-23T15:42:36;100261.56;;;13.34;91.27
31062;BME280;17724;53.546;9.974;2023-03-23T15:46:48;100261.50;;;13.39;89.24
31062;BME280;17724;53.546;9.974;2023-03-23T15:50:49;100266.84;;;13.30;87.74
31062;BME280;17724;53.546;9.974;2023-03-23T15:54:50;100264.84;;;13.36;87.18
31062;BME280;17724;53.546;9.974;2023-03-23T15:58:52;100286.47;;;13.23;85.41
31062;BME280;17724;53.546;9.974;2023-03-23T16:02:55;100289.06;;;13.10;86.15
31062;BME280;17724;53.546;9.974;2023-03-23T16:06:56;100289.31;;;13.08;86.72
31062;BME280;17724;53.546;9.974;2023-03-23T16:10:58;100297.91;;;13.06;87.55
31062;BME280;17724;53.546;9.974;2023-03-23T16:14:59;100296.41;;;13.19;87.13
31062;BME280;17724;53.546;9.974;2023-03-23T16:19:00;100312.22;;;13.14;85.63
31062;BME280;17724;53.546;9.974;2023-03-23T16:23:00;100309.72;;;13.17;87.53
31062;BME280;17724;53.546;9.974;2023-03-23T16:27:00;100314.22;;;13.42;87.84
31062;BME280;17724;53.546;9.974;2023-03-23T16:31:01;100323.63;;;13.70;87.05
31062;BME280;17724;53.546;9.974;2023-03-23T16:35:02;100317.94;;;13.62;84.44
31062;BME280;17724;53.546;9.974;2023-03-23T16:39:03;100315.34;;;13.41;85.02
31062;BME280;17724;53.546;9.974;2023-03-23T16:43:04;100319.44;;;13.49;85.33
31062;BME280;17724;53.546;9.974;2023-03-23T16:47:04;100302.97;;;13.34;85.82
31062;BME280;17724;53.546;9.974;2023-03-23T16:51:05;100275.41;;;13.28;88.63
31062;BME280;17724;53.546;9.974;2023-03-23T16:55:07;100273.66;;;13.38;90.01
31062;BME280;17724;53.546;9.974;2023-03-23T16:59:08;100276.13;;;13.39;89.41
31062;BME280;17724;53.546;9.974;2023-03-23T17:03:09;100281.81;;;13.53;87.37
31062;BME280;17724;53.546;9.974;2023-03-23T17:07:11;100282.09;;;13.51;86.75
31062;BME280;17724;53.546;9.974;2023-03-23T17:11:12;100285.47;;;13.43;87.32
31062;BME280;17724;53.546;9.974;2023-03-23T17:15:13;100293.19;;;13.46;86.70
31062;BME280;17724;53.546;9.974;2023-03-23T17:19:13;100307.09;;;13.36;87.44
31062;BME280;17724;53.546;9.974;2023-03-23T17:23:14;100300.78;;;13.30;87.84
31062;BME280;17724;53.546;9.974;2023-03-23T17:27:18;100305.00;;;13.52;89.02
31062;BME280;17724;53.546;9.974;2023-03-23T17:31:19;100313.47;;;13.66;86.88
31062;BME280;17724;53.546;9.974;2023-03-23T17:35:20;100310.41;;;13.38;86.96
31062;BME280;17724;53.546;9.974;2023-03-23T17:39:21;100316.69;;;13.44;86.84
31062;BME280;17724;53.546;9.974;2023-03-23T17:43:21;100310.19;;;13.29;87.78
31062;BME280;17724;53.546;9.974;2023-03-23T17:47:22;100307.69;;;13.33;88.73
31062;BME280;17724;53.546;9.974;2023-03-23T17:51:23;100325.38;;;13.27;89.31
31062;BME280;17724;53.546;9.974;2023-03-23T17:55:23;100330.72;;;13.08;90.52
31062;BME280;17724;53.546;9.974;2023-03-23T17:59:24;100322.09;;;13.25;90.74
31062;BME280;17724;53.546;9.974;2023-03-23T18:03:25;100317.03;;;13.37;91.51
31062;BME280;17724;53.546;9.974;2023-03-23T18:07:26;100324.69;;;13.45;90.79
31062;BME280;17724;53.546;9.974;2023-03-23T18:11:26;100329.97;;;13.42;92.14
31062;BME280;17724;53.546;9.974;2023-03-23T18:15:27;100330.09;;;13.21;91.18
31062;BME280;17724;53.546;9.974;2023-03-23T18:19:28;100349.03;;;12.99;92.16
31062;BME280;17724;53.546;9.974;2023-03-23T18:23:30;100340.34;;;13.16;93.52
31062;BME280;17724;53.546;9.974;2023-03-23T18:27:34;100343.63;;;12.78;93.16
31062;BME280;17724;53.546;9.974;2023-03-23T18:31:35;100339.00;;;12.64;92.25
31062;BME280;17724;53.546;9.974;2023-03-23T18:35:39;100342.97;;;12.92;91.92
31062;BME280;17724;53.546;9.974;2023-03-23T18:39:39;100342.31;;;12.66;91.80
31062;BME280;17724;53.546;9.974;2023-03-23T18:43:40;100347.28;;;12.69;92.28
31062;BME280;17724;53.546;9.974;2023-03-23T18:47:41;100344.50;;;12.69;93.09
31062;BME280;17724;53.546;9.974;2023-03-23T18:51:42;100349.78;;;12.65;92.96
31062;BME280;17724;53.546;9.974;2023-03-23T18:55:43;100337.63;;;12.66;92.46
31062;BME280;17724;53.546;9.974;2023-03-23T18:59:44;100340.88;;;12.78;92.27
31062;BME280;17724;53.546;9.974;2023-03-23T19:03:45;100326.28;;;12.68;91.54
31062;BME280;17724;53.546;9.974;2023-03-23T19:07:45;100336.75;;;12.71;92.36
31062;BME280;17724;53.546;9.974;2023-03-23T19:11:46;100346.88;;;12.91;89.78
31062;BME280;17724;53.546;9.974;2023-03-23T19:15:46;100349.66;;;12.86;89.81
31062;BME280;17724;53.546;9.974;2023-03-23T19:19:47;100340.91;;;12.68;90.50
31062;BME280;17724;53.546;9.974;2023-03-23T19:23:48;100338.09;;;12.78;90.26
31062;BME280;17724;53.546;9.974;2023-03-23T19:27:48;100340.16;;;12.57;91.55
31062;BME280;17724;53.546;9.974;2023-03-23T19:31:49;100353.69;;;12.54;92.57
31062;BME280;17724;53.546;9.974;2023-03-23T19:35:52;100348.16;;;12.54;93.21
31062;BME280;17724;53.546;9.974;2023-03-23T19:39:53;100349.53;;;12.51;93.41
31062;BME280;17724;53.546;9.974;2023-03-23T19:43:54;100340.97;;;12.58;93.83
31062;BME280;17724;53.546;9.974;2023-03-23T19:47:54;100334.03;;;12.66;93.92
31062;BME280;17724;53.546;9.974;2023-03-23T19:51:55;100342.91;;;12.57;93.96
31062;BME280;17724;53.546;9.974;2023-03-23T19:55:56;100352.56;;;12.55;94.89
31062;BME280;17724;53.546;9.974;2023-03-23T19:59:57;100341.59;;;12.40;95.34
31062;BME280;17724;53.546;9.974;2023-03-23T20:03:57;100337.22;;;12.28;95.86
31062;BME280;17724;53.546;9.974;2023-03-23T20:07:58;100331.13;;;12.37;95.74
31062;BME280;17724;53.546;9.974;2023-03-23T20:11:58;100328.66;;;12.35;95.47
31062;BME280;17724;53.546;9.974;2023-03-23T20:15:59;100327.59;;;12.26;95.58
31062;BME280;17724;53.546;9.974;2023-03-23T20:19:59;100322.34;;;12.29;95.68
31062;BME280;17724;53.546;9.974;2023-03-23T20:24:00;100310.16;;;12.36;96.16
31062;BME280;17724;53.546;9.974;2023-03-23T20:28:00;100323.94;;;12.46;95.94
31062;BME280;17724;53.546;9.974;2023-03-23T20:32:01;100311.88;;;12.26;96.54
31062;BME280;17724;53.546;9.974;2023-03-23T20:36:03;100305.72;;;12.40;96.62
31062;BME280;17724;53.546;9.974;2023-03-23T20:40:09;100301.38;;;12.28;96.19
31062;BME280;17724;53.546;9.974;2023-03-23T20:44:11;100302.81;;;12.16;96.58
31062;BME280;17724;53.546;9.974;2023-03-23T20:48:12;100292.00;;;12.29;97.12
31062;BME280;17724;53.546;9.974;2023-03-23T20:52:13;100295.25;;;12.37;97.00
31062;BME280;17724;53.546;9.974;2023-03-23T20:56:13;100298.53;;;12.44;97.16
31062;BME280;17724;53.546;9.974;2023-03-23T21:00:14;100298.78;;;12.52;97.19
31062;BME280;17724;53.546;9.974;2023-03-23T21:04:17;100285.91;;;12.38;97.99
31062;BME280;17724;53.546;9.974;2023-03-23T21:08:18;100274.66;;;12.29;99.15
31062;BME280;17724;53.546;9.974;2023-03-23T21:12:18;100287.91;;;12.22;99.10
31062;BME280;17724;53.546;9.974;2023-03-23T21:16:19;100275.47;;;12.29;99.99
31062;BME280;17724;53.546;9.974;2023-03-23T21:20:20;100279.91;;;12.25;100.00
31062;BME280;17724;53.546;9.974;2023-03-23T21:24:25;100280.75;;;12.21;100.00
31062;BME280;17724;53.546;9.974;2023-03-23T21:28:27;100281.78;;;12.35;100.00
31062;BME280;17724;53.546;9.974;2023-03-23T21:32:27;100278.53;;;12.18;100.00
31062;BME280;17724;53.546;9.974;2023-03-23T21:36:28;100277.63;;;12.32;100.00
31062;BME280;17724;53.546;9.974;2023-03-23T21:40:30;100276.69;;;11.88;100.00
31062;BME280;17724;53.546;9.974;2023-03-23T21:44:30;100264.88;;;11.87;100.00
31062;BME280;17724;53.546;9.974;2023-03-23T21:48:34;100263.50;;;11.90;100.00
31062;BME280;17724;53.546;9.974;2023-03-23T21:52:37;100266.50;;;11.98;100.00
31062;BME280;17724;53.546;9.974;2023-03-23T21:56:38;100252.44;;;11.95;100.00
31062;BME280;17724;53.546;9.974;2023-03-23T22:00:38;100246.09;;;11.94;100.00
31062;BME280;17724;53.546;9.974;2023-03-23T22:04:42;100232.84;;;11.96;100.00
31062;BME280;17724;53.546;9.974;2023-03-23T22:08:44;100230.91;;;11.97;100.00
31062;BME280;17724;53.546;9.974;2023-03-23T22:12:45;100226.53;;;11.96;100.00
31062;BME280;17724;53.546;9.974;2023-03-23T22:16:49;100220.97;;;12.11;100.00
31062;BME280;17724;53.546;9.974;2023-03-23T22:20:49;100211.97;;;11.90;100.00
31062;BME280;17724;53.546;9.974;2023-03-23T22:24:50;100210.88;;;11.81;100.00
31062;BME280;17724;53.546;9.974;2023-03-23T22:28:51;100203.69;;;11.90;100.00
31062;BME280;17724;53.546;9.974;2023-03-23T22:32:52;100197.91;;;11.76;100.00
31062;BME280;17724;53.546;9.974;2023-03-23T22:36:52;100184.13;;;11.81;100.00
31062;BME280;17724;53.546;9.974;2023-03-23T22:40:57;100173.41;;;11.75;100.00
31062;BME280;17724;53.546;9.974;2023-03-23T22:44:58;100169.28;;;11.72;100.00
31062;BME280;17724;53.546;9.974;2023-03-23T22:48:58;100169.88;;;11.69;100.00